Time;durP1;ratioP1;P1;durP2;ratioP2;P2;SDS_P1;SDS_P2;PMS_P1;PMS_P2;Temp;Humidity;BMP_temperature;BMP_pressure;BME280_temperature;BME280_humidity;BME280_pressure;Samples;Min_cycle;Max_cycle;Signal;HPM_P1;HPM_P2
2022/09/24 00:02:19;;;;;;;0.50;0.40;;;;;;;10.69;72.48;95706.97;4970955;28;20429;-55
2022/09/24 00:04:48;;;;;;;0.60;0.60;;;;;;;11.34;70.89;95709.75;4970368;28;20516;-55
2022/09/24 00:07:17;;;;;;;0.40;0.20;;;;;;;11.69;69.35;95710.88;4970612;28;20504;-55
2022/09/24 00:09:47;;;;;;;0.40;0.30;;;;;;;11.74;68.60;95695.72;4970810;28;20813;-54
2022/09/24 00:12:16;;;;;;;0.40;0.30;;;;;;;11.56;68.79;95693.56;4970451;28;20430;-54
2022/09/24 00:14:44;;;;;;;2.33;1.43;;;;;;;11.78;68.65;95694.16;4970939;28;20429;-54
2022/09/24 00:17:12;;;;;;;0.40;0.20;;;;;;;11.87;68.88;95695.19;4970115;28;20444;-55
2022/09/24 00:19:41;;;;;;;0.40;0.20;;;;;;;12.00;68.10;95689.34;4970503;28;20438;-55
2022/09/24 00:22:09;;;;;;;0.40;0.20;;;;;;;12.02;67.57;95684.53;4970696;28;20975;-55
2022/09/24 00:27:21;;;;;;;0.40;0.20;;;;;;;11.77;68.40;95692.53;4991315;28;20808;-55
2022/09/24 00:29:49;;;;;;;0.40;0.30;;;;;;;11.95;67.38;95693.84;4970167;28;20441;-55
2022/09/24 00:32:17;;;;;;;0.40;0.20;;;;;;;12.13;67.39;95687.97;4970322;28;20424;-55
2022/09/24 00:34:46;;;;;;;0.40;0.20;;;;;;;12.00;67.36;95696.50;4970140;28;20942;-55
2022/09/24 00:37:14;;;;;;;0.40;0.20;;;;;;;11.93;67.39;95690.66;4970180;28;20982;-55
2022/09/24 00:39:44;;;;;;;0.40;0.30;;;;;;;11.71;68.34;95704.25;4969831;28;20852;-55
2022/09/24 00:42:13;;;;;;;0.40;0.20;;;;;;;11.35;69.44;95702.59;4970160;28;20441;-56
2022/09/24 00:44:56;;;;;;;0.50;0.40;;;;;;;11.47;68.73;95698.63;4970723;28;20434;-56
2022/09/24 00:47:34;;;;;;;0.40;0.30;;;;;;;10.89;71.33;95699.06;4970227;28;20426;-55
2022/09/24 00:50:12;;;;;;;0.40;0.20;;;;;;;10.87;71.97;95698.53;4970139;28;20429;-56
2022/09/24 00:52:45;;;;;;;0.40;0.20;;;;;;;11.29;70.12;95696.50;4970189;28;20433;-56
2022/09/24 00:55:17;;;;;;;0.40;0.30;;;;;;;10.90;71.32;95699.88;4969696;28;20785;-56
2022/09/24 00:57:47;;;;;;;0.40;0.30;;;;;;;10.00;72.45;95646.22;4969905;28;20843;-56
2022/09/24 01:00:16;;;;;;;0.40;0.30;;;;;;;10.67;72.00;95701.94;4969725;28;20429;-56
2022/09/24 01:02:47;;;;;;;10.43;0.73;;;;;;;10.79;70.29;95699.84;4969603;28;20438;-56
2022/09/24 01:05:15;;;;;;;0.77;0.77;;;;;;;10.91;70.76;95698.81;4970083;28;20429;-56
2022/09/24 01:07:46;;;;;;;0.40;0.20;;;;;;;10.90;70.12;95711.28;4969795;28;20438;-56
2022/09/24 01:10:46;;;;;;;0.40;0.30;;;;;;;10.82;69.01;95664.06;4969416;28;20521;-56
2022/09/24 01:13:20;;;;;;;0.50;0.50;;;;;;;11.15;69.49;95698.09;4969821;28;20481;-56
2022/09/24 01:15:55;;;;;;;0.40;0.20;;;;;;;10.89;69.57;95655.84;4969800;28;20437;-56
2022/09/24 01:18:33;;;;;;;0.40;0.30;;;;;;;10.83;69.79;95653.19;4969585;28;20451;-56
2022/09/24 01:21:24;;;;;;;0.40;0.30;;;;;;;10.82;70.43;95711.78;4969612;28;20434;-56
2022/09/24 01:24:16;;;;;;;0.40;0.30;;;;;;;10.58;72.64;95714.06;4969928;28;20469;-56
2022/09/24 01:27:11;;;;;;;0.40;0.30;;;;;;;10.89;71.10;95708.88;4969932;28;20440;-55
2022/09/24 01:29:52;;;;;;;0.40;0.20;;;;;;;10.92;70.68;95703.88;4973254;28;20438;-55
2022/09/24 01:32:28;;;;;;;0.70;0.70;;;;;;;10.94;70.95;95708.88;4972785;28;20430;-55
2022/09/24 01:35:03;;;;;;;0.40;0.20;;;;;;;11.10;70.10;95714.00;4972879;28;20477;-56
2022/09/24 01:37:34;;;;;;;0.40;0.30;;;;;;;11.22;69.60;95706.56;4972893;28;20440;-55
2022/09/24 01:40:05;;;;;;;0.40;0.20;;;;;;;11.16;69.92;95704.97;4972674;28;20477;-55
2022/09/24 01:42:35;;;;;;;0.60;0.60;;;;;;;11.20;69.57;95714.00;4973091;28;20445;-55
2022/09/24 01:45:07;;;;;;;0.40;0.20;;;;;;;11.16;69.44;95702.31;4972805;28;20438;-55
2022/09/24 01:47:38;;;;;;;0.40;0.30;;;;;;;10.90;71.58;95713.13;4972710;28;20943;-55
2022/09/24 01:50:08;;;;;;;0.40;0.20;;;;;;;10.98;70.28;95709.97;4972632;28;20521;-55
2022/09/24 01:52:45;;;;;;;0.40;0.20;;;;;;;11.13;69.27;95708.13;4972583;28;20941;-55
2022/09/24 01:55:17;;;;;;;0.40;0.30;;;;;;;11.17;69.41;95709.22;4972826;28;20496;-56
2022/09/24 01:57:50;;;;;;;0.50;0.50;;;;;;;11.05;70.42;95711.31;4972879;28;20441;-55
2022/09/24 02:00:21;;;;;;;0.40;0.20;;;;;;;11.10;70.40;95715.84;4972659;28;20517;-56
2022/09/24 02:02:56;;;;;;;0.40;0.30;;;;;;;10.77;70.09;95661.41;4972864;28;20422;-56
2022/09/24 02:05:32;;;;;;;0.40;0.20;;;;;;;11.10;69.71;95719.28;4972509;28;20444;-56
2022/09/24 02:08:07;;;;;;;0.80;0.30;;;;;;;10.95;69.87;95721.91;4972546;28;20430;-56
2022/09/24 02:10:45;;;;;;;0.40;0.30;;;;;;;10.85;69.84;95716.56;4972665;28;20464;-56
2022/09/24 02:13:17;;;;;;;0.40;0.20;;;;;;;10.79;71.15;95722.91;4972349;28;20433;-56
2022/09/24 02:15:50;;;;;;;0.60;0.30;;;;;;;11.01;70.30;95720.03;4972549;28;20460;-56
2022/09/24 02:18:24;;;;;;;0.40;0.40;;;;;;;10.70;71.23;95727.13;4972127;28;20434;-56
2022/09/24 02:20:53;;;;;;;0.40;0.30;;;;;;;10.48;71.97;95718.53;4972649;28;20429;-56
2022/09/24 02:23:26;;;;;;;0.40;0.30;;;;;;;10.14;73.13;95740.06;4972315;28;20434;-56
2022/09/24 02:26:00;;;;;;;2.00;0.30;;;;;;;10.51;72.89;95731.28;4972130;28;20456;-56
2022/09/24 02:28:30;;;;;;;0.40;0.20;;;;;;;10.35;72.46;95735.69;4972508;28;20429;-56
2022/09/24 02:31:05;;;;;;;0.40;0.20;;;;;;;10.54;71.33;95698.97;4972799;28;20426;-56
2022/09/24 02:36:23;;;;;;;0.40;0.20;;;;;;;10.80;70.22;95729.81;4972045;28;20443;-56
2022/09/24 02:38:52;;;;;;;0.40;0.20;;;;;;;10.90;69.73;95734.34;4972024;28;20491;-56
2022/09/24 02:41:23;;;;;;;0.40;0.20;;;;;;;10.36;71.39;95708.16;4971840;28;20485;-56
2022/09/24 02:43:52;;;;;;;0.50;0.40;;;;;;;10.19;72.33;95728.75;4972111;28;20800;-56
2022/09/24 02:46:21;;;;;;;0.40;0.30;;;;;;;10.06;73.21;95737.91;4971740;28;20437;-56
2022/09/24 02:48:50;;;;;;;0.50;0.30;;;;;;;9.95;75.53;95736.22;4971654;28;20430;-56
2022/09/24 02:51:18;;;;;;;0.40;0.20;;;;;;;9.91;74.55;95747.59;4971535;28;20445;-56
2022/09/24 02:53:46;;;;;;;0.40;0.30;;;;;;;9.18;77.19;95684.81;4972415;28;20422;-56
2022/09/24 02:56:14;;;;;;;0.40;0.20;;;;;;;10.16;74.50;95739.84;4971830;28;20429;-56
2022/09/24 02:58:43;;;;;;;0.40;0.30;;;;;;;10.41;72.17;95741.81;4971699;28;20942;-56
2022/09/24 03:01:11;;;;;;;0.83;0.83;;;;;;;10.15;73.22;95749.63;4971774;28;20441;-56
2022/09/24 03:03:41;;;;;;;0.40;0.20;;;;;;;10.05;74.07;95738.13;4971971;28;20430;-56
2022/09/24 03:06:12;;;;;;;0.70;0.40;;;;;;;9.95;73.70;95759.25;4971660;28;20441;-56
2022/09/24 03:08:41;;;;;;;0.37;0.20;;;;;;;9.33;78.16;95766.94;4971903;28;20422;-56
2022/09/24 03:11:09;;;;;;;0.47;0.33;;;;;;;8.98;81.16;95764.72;4971451;28;20778;-56
2022/09/24 03:13:44;;;;;;;1.07;0.40;;;;;;;8.86;83.96;95769.34;4971355;28;20429;-56
2022/09/24 03:16:13;;;;;;;0.40;0.30;;;;;;;9.19;83.37;95760.44;4971743;28;20804;-56
2022/09/24 03:18:43;;;;;;;0.40;0.30;;;;;;;9.60;79.06;95765.06;4971599;28;20430;-56
2022/09/24 03:21:13;;;;;;;0.40;0.30;;;;;;;9.86;76.59;95758.13;4971386;28;20438;-56
2022/09/24 03:23:42;;;;;;;0.40;0.30;;;;;;;9.95;75.18;95757.41;4971702;28;20426;-56
2022/09/24 03:26:11;;;;;;;0.40;0.20;;;;;;;9.82;76.12;95767.63;4971551;28;20445;-56
2022/09/24 03:28:39;;;;;;;0.40;0.30;;;;;;;9.86;75.70;95777.47;4971417;28;20430;-56
2022/09/24 03:31:07;;;;;;;0.40;0.20;;;;;;;9.70;75.63;95770.44;4971602;28;20445;-56
2022/09/24 03:33:38;;;;;;;0.40;0.30;;;;;;;9.70;76.03;95783.69;4970576;28;20917;-56
2022/09/24 03:36:09;;;;;;;0.30;0.20;;;;;;;9.72;75.15;95792.16;4970949;28;20473;-56
2022/09/24 03:38:39;;;;;;;0.40;0.30;;;;;;;9.67;75.82;95791.31;4971145;28;20425;-56
2022/09/24 03:41:09;;;;;;;0.40;0.20;;;;;;;9.39;75.86;95771.22;4970821;28;20473;-56
2022/09/24 03:43:38;;;;;;;0.40;0.30;;;;;;;8.85;77.87;95731.53;4970841;28;21087;-56
2022/09/24 03:46:07;;;;;;;1.30;1.30;;;;;;;9.54;76.73;95805.75;4970909;28;20430;-56
2022/09/24 03:48:37;;;;;;;0.40;0.30;;;;;;;9.51;76.57;95801.00;4970163;28;20453;-56
2022/09/24 03:51:10;;;;;;;0.53;0.50;;;;;;;9.63;76.54;95798.97;4970169;28;20433;-56
2022/09/24 03:53:39;;;;;;;0.40;0.30;;;;;;;9.54;76.77;95798.63;4970625;28;20436;-56
2022/09/24 03:56:10;;;;;;;0.43;0.43;;;;;;;9.78;75.28;95816.84;4970848;28;20481;-56
2022/09/24 03:58:39;;;;;;;0.40;0.30;;;;;;;9.71;75.60;95806.47;4970945;28;20431;-56
2022/09/24 04:01:08;;;;;;;0.40;0.20;;;;;;;9.78;75.19;95808.91;4969951;28;20437;-57
2022/09/24 04:03:37;;;;;;;0.40;0.30;;;;;;;9.61;76.07;95806.38;4969790;28;20795;-56
2022/09/24 04:06:08;;;;;;;0.60;0.40;;;;;;;9.34;76.23;95797.63;4970836;28;20452;-57
2022/09/24 04:08:36;;;;;;;1.27;0.30;;;;;;;9.36;76.77;95811.41;4971239;28;20449;-57
2022/09/24 04:11:05;;;;;;;0.40;0.30;;;;;;;9.11;76.98;95790.00;4971539;28;20417;-56
2022/09/24 04:13:33;;;;;;;0.40;0.20;;;;;;;9.11;78.14;95817.22;4970893;28;20430;-56
2022/09/24 04:16:02;;;;;;;0.40;0.30;;;;;;;8.77;77.25;95750.50;4971044;28;20470;-56
2022/09/24 04:18:31;;;;;;;0.40;0.30;;;;;;;9.24;76.54;95816.03;4970764;28;20429;-56
2022/09/24 04:21:07;;;;;;;0.60;0.40;;;;;;;8.31;81.76;95822.25;4971001;28;20414;-56
2022/09/24 04:23:36;;;;;;;0.40;0.23;;;;;;;8.75;81.28;95820.50;4970853;28;20815;-56
2022/09/24 04:26:04;;;;;;;0.40;0.37;;;;;;;8.88;81.85;95836.78;4970013;28;20437;-56
2022/09/24 04:28:33;;;;;;;0.40;0.20;;;;;;;9.07;78.73;95828.53;4971053;28;20434;-56
2022/09/24 04:31:01;;;;;;;0.50;0.43;;;;;;;9.22;78.99;95834.81;4970749;28;20422;-56
2022/09/24 04:33:30;;;;;;;0.50;0.50;;;;;;;9.19;78.85;95831.84;4970768;28;20585;-56
2022/09/24 04:35:58;;;;;;;0.50;0.40;;;;;;;9.23;78.87;95830.31;4970865;28;20480;-56
2022/09/24 04:38:28;;;;;;;1.93;0.33;;;;;;;9.10;79.35;95839.44;4970605;28;20429;-57
2022/09/24 04:41:05;;;;;;;0.80;0.37;;;;;;;9.06;79.64;95829.59;4970293;28;20827;-56
2022/09/24 04:43:33;;;;;;;0.40;0.30;;;;;;;9.13;80.04;95835.50;4970468;28;20922;-56
2022/09/24 04:46:02;;;;;;;0.40;0.20;;;;;;;9.61;77.67;95838.13;4970384;28;20819;-56
2022/09/24 04:48:31;;;;;;;0.40;0.30;;;;;;;9.81;76.70;95843.63;4970377;28;20437;-56
2022/09/24 04:51:01;;;;;;;0.40;0.30;;;;;;;10.00;75.53;95836.88;4970271;28;20425;-56
2022/09/24 04:53:31;;;;;;;0.40;0.20;;;;;;;9.93;75.12;95835.50;4970383;28;20445;-56
2022/09/24 04:56:00;;;;;;;0.33;0.27;;;;;;;10.26;75.34;95834.47;4970127;28;20469;-56
2022/09/24 04:58:28;;;;;;;0.40;0.30;;;;;;;10.04;74.74;95823.94;4970274;28;20438;-56
2022/09/24 05:00:56;;;;;;;0.47;0.47;;;;;;;9.22;77.19;95755.47;4970445;28;20438;-56
2022/09/24 05:03:25;;;;;;;0.50;0.40;;;;;;;9.36;77.83;95808.78;4973796;28;20456;-56
2022/09/24 05:05:54;;;;;;;0.40;0.30;;;;;;;9.88;76.87;95838.09;4973650;28;20441;-56
2022/09/24 05:08:22;;;;;;;0.30;0.20;;;;;;;10.26;75.19;95843.22;4973868;28;20430;-56
2022/09/24 05:10:52;;;;;;;0.40;0.30;;;;;;;10.43;74.76;95835.09;4973465;28;20448;-57
2022/09/24 05:13:21;;;;;;;0.50;0.30;;;;;;;10.27;73.63;95817.53;4972841;28;20425;-57
2022/09/24 05:15:49;;;;;;;0.40;0.30;;;;;;;9.95;74.49;95836.84;4973432;28;20473;-57
2022/09/24 05:18:18;;;;;;;0.53;0.30;;;;;;;9.30;76.02;95770.09;4973391;28;20476;-57
2022/09/24 05:20:46;;;;;;;0.30;0.20;;;;;;;9.72;76.53;95818.63;4973748;28;20457;-57
2022/09/24 05:23:15;;;;;;;0.40;0.30;;;;;;;10.18;76.65;95839.19;4973628;28;20438;-57
2022/09/24 05:28:27;;;;;;;0.40;0.30;;;;;;;9.73;77.37;95799.06;4975674;28;20433;-57
2022/09/24 05:30:57;;;;;;;0.50;0.50;;;;;;;8.95;81.55;95824.16;4973026;28;20488;-56
2022/09/24 05:33:25;;;;;;;0.90;0.80;;;;;;;7.47;88.31;95705.38;4973607;28;20840;-56
2022/09/24 05:35:54;;;;;;;0.63;0.63;;;;;;;8.56;92.85;95846.41;4972754;28;20508;-56
2022/09/24 05:38:23;;;;;;;0.70;0.70;;;;;;;8.40;94.13;95841.94;4972136;28;20943;-56
2022/09/24 05:40:51;;;;;;;4.53;1.90;;;;;;;8.08;91.63;95791.53;4972096;28;20465;-56
2022/09/24 05:43:20;;;;;;;0.70;0.70;;;;;;;8.67;93.45;95856.06;4973027;28;20899;-56
2022/09/24 05:45:49;;;;;;;0.43;0.40;;;;;;;9.28;90.48;95854.19;4973007;28;20457;-57
2022/09/24 05:48:18;;;;;;;2.07;1.97;;;;;;;9.06;86.93;95856.03;4972974;28;20871;-57
2022/09/24 05:50:46;;;;;;;0.60;0.53;;;;;;;9.64;82.44;95840.25;4971839;28;20441;-57
2022/09/24 05:53:14;;;;;;;0.80;0.70;;;;;;;10.63;76.01;95742.44;4973001;28;20433;-56
2022/09/24 05:55:43;;;;;;;2.37;0.60;;;;;;;11.58;72.10;95857.94;4973274;28;20496;-56
2022/09/24 05:58:11;;;;;;;0.83;0.83;;;;;;;11.03;73.12;95861.97;4973121;28;20915;-56
2022/09/24 06:00:40;;;;;;;0.43;0.40;;;;;;;11.52;71.74;95858.97;4972979;28;20437;-57
2022/09/24 06:03:12;;;;;;;1.57;0.40;;;;;;;11.94;69.79;95864.94;4973109;28;20449;-56
2022/09/24 06:05:45;;;;;;;0.40;0.33;;;;;;;12.16;69.24;95859.38;4972323;28;20432;-56
2022/09/24 06:08:14;;;;;;;0.50;0.40;;;;;;;12.75;67.47;95860.38;4972216;28;20808;-57
2022/09/24 06:10:46;;;;;;;1.13;0.50;;;;;;;12.89;66.38;95864.06;4973185;28;20434;-57
2022/09/24 06:13:17;;;;;;;0.40;0.20;;;;;;;13.57;64.03;95859.84;4971805;28;20434;-56
2022/09/24 06:15:45;;;;;;;0.70;0.70;;;;;;;13.76;64.11;95857.34;4972436;28;20481;-56
2022/09/24 06:18:15;;;;;;;0.47;0.37;;;;;;;14.20;62.48;95851.97;4972853;28;20426;-57
2022/09/24 06:20:45;;;;;;;0.50;0.37;;;;;;;13.49;63.74;95868.41;4974183;28;20430;-56
2022/09/24 06:23:14;;;;;;;0.70;0.60;;;;;;;13.50;63.08;95871.88;4973355;28;20476;-57
2022/09/24 06:25:42;;;;;;;0.60;0.40;;;;;;;13.86;62.13;95870.63;4972782;28;20457;-57
2022/09/24 06:28:11;;;;;;;0.53;0.53;;;;;;;14.53;60.86;95861.88;4972627;28;20430;-59
2022/09/24 06:30:40;;;;;;;0.87;0.87;;;;;;;15.08;60.41;95864.00;4972083;28;20434;-59
2022/09/24 06:33:10;;;;;;;0.60;0.50;;;;;;;15.50;58.19;95859.78;4972182;28;20449;-60
2022/09/24 06:35:41;;;;;;;0.50;0.47;;;;;;;15.84;56.41;95855.06;4972090;28;20834;-60
2022/09/24 06:38:12;;;;;;;0.50;0.30;;;;;;;15.69;56.04;95857.94;4972203;28;20442;-59
2022/09/24 06:40:41;;;;;;;0.50;0.40;;;;;;;15.32;56.72;95865.88;4972029;28;20465;-60
2022/09/24 06:43:11;;;;;;;0.40;0.30;;;;;;;15.77;54.98;95857.28;4972364;28;20419;-61
2022/09/24 06:45:41;;;;;;;1.23;1.23;;;;;;;15.69;54.79;95866.75;4972229;28;20906;-62
2022/09/24 06:48:12;;;;;;;0.50;0.33;;;;;;;16.15;53.48;95868.78;4972038;28;20426;-63
2022/09/24 06:50:43;;;;;;;0.80;0.70;;;;;;;16.70;53.62;95867.09;4972025;28;20427;-64
2022/09/24 06:53:13;;;;;;;1.77;1.17;;;;;;;17.14;52.24;95868.19;4971969;28;20436;-64
2022/09/24 06:55:41;;;;;;;0.60;0.50;;;;;;;16.32;53.17;95869.84;4971980;28;20911;-63
2022/09/24 06:58:11;;;;;;;0.77;0.77;;;;;;;16.79;53.39;95865.38;4971531;28;20490;-62
2022/09/24 07:00:40;;;;;;;0.50;0.50;;;;;;;17.88;51.49;95871.53;4972033;28;20901;-62
2022/09/24 07:03:15;;;;;;;0.40;0.40;;;;;;;16.86;51.27;95833.63;4971634;28;20958;-63
2022/09/24 07:05:45;;;;;;;0.97;0.50;;;;;;;16.91;51.33;95884.41;4971365;28;20437;-62
2022/09/24 07:08:13;;;;;;;0.70;0.40;;;;;;;17.73;50.89;95879.91;4971957;28;20931;-61
2022/09/24 07:10:46;;;;;;;0.67;0.40;;;;;;;18.24;49.69;95876.91;4971239;28;20420;-60
2022/09/24 07:13:15;;;;;;;1.23;1.13;;;;;;;18.82;49.28;95864.22;4984319;28;20433;-67
2022/09/24 07:15:44;;;;;;;0.60;0.40;;;;;;;18.86;47.87;95875.94;4991399;28;20457;-59
2022/09/24 07:18:13;;;;;;;0.50;0.40;;;;;;;19.62;45.83;95861.28;4990540;28;20555;-64
2022/09/24 07:20:41;;;;;;;0.60;0.50;;;;;;;18.97;45.24;95718.75;4991267;28;20793;-61
2022/09/24 07:23:12;;;;;;;0.70;0.50;;;;;;;19.55;45.98;95865.53;4991203;28;20430;-61
2022/09/24 07:25:40;;;;;;;1.27;0.40;;;;;;;19.56;45.02;95842.88;4989823;28;20431;-61
2022/09/24 07:28:11;;;;;;;0.60;0.50;;;;;;;21.31;47.81;95857.22;4990798;28;20442;-61
2022/09/24 07:30:40;;;;;;;3.40;0.43;;;;;;;20.35;43.47;95858.81;4991224;28;20449;-61
2022/09/24 07:33:09;;;;;;;1.10;0.60;;;;;;;19.93;46.04;95861.16;4991091;28;20435;-61
2022/09/24 07:35:38;;;;;;;0.70;0.67;;;;;;;19.70;45.32;95872.34;4991000;28;20480;-61
2022/09/24 07:38:08;;;;;;;0.40;0.30;;;;;;;20.25;45.79;95854.56;4991196;28;20471;-61
2022/09/24 07:40:38;;;;;;;0.60;0.30;;;;;;;20.96;43.68;95839.56;5003917;28;20843;-60
2022/09/24 07:43:11;;;;;;;5.20;1.93;;;;;;;19.92;43.81;95854.19;4991148;28;20439;-60
2022/09/24 07:45:40;;;;;;;0.60;0.50;;;;;;;20.12;44.47;95825.88;4990954;28;20478;-60
2022/09/24 07:48:10;;;;;;;0.47;0.40;;;;;;;20.61;42.82;95838.06;4990881;28;20960;-60
2022/09/24 07:50:40;;;;;;;0.40;0.30;;;;;;;20.64;42.87;95840.91;4990803;28;20445;-59
2022/09/24 07:53:10;;;;;;;0.50;0.33;;;;;;;21.81;42.27;95841.06;4990817;28;20439;-61
2022/09/24 07:55:40;;;;;;;0.70;0.60;;;;;;;19.80;43.01;95807.50;4990630;28;20498;-60
2022/09/24 07:58:12;;;;;;;0.50;0.40;;;;;;;20.99;42.65;95835.44;4990387;28;20487;-60
2022/09/24 08:00:40;;;;;;;0.60;0.40;;;;;;;21.93;41.29;95835.81;4990455;28;20554;-58
2022/09/24 08:03:09;;;;;;;0.50;0.50;;;;;;;22.00;40.07;95832.56;4990152;28;20428;-58
2022/09/24 08:05:43;;;;;;;0.63;0.63;;;;;;;22.52;40.31;95816.72;4990394;28;20993;-58
2022/09/24 08:08:11;;;;;;;0.50;0.30;;;;;;;22.93;38.74;95821.25;4990341;28;20775;-57
2022/09/24 08:10:41;;;;;;;0.40;0.30;;;;;;;22.75;38.97;95796.31;4990291;28;20427;-58
2022/09/24 08:13:10;;;;;;;0.40;0.40;;;;;;;22.96;38.51;95823.28;4990505;28;20460;-58
2022/09/24 08:15:38;;;;;;;0.70;0.70;;;;;;;22.42;37.93;95812.50;4990236;28;20948;-58
2022/09/24 08:18:07;;;;;;;0.50;0.50;;;;;;;23.77;37.95;95793.44;4989996;28;21015;-57
2022/09/24 08:20:37;;;;;;;0.60;0.30;;;;;;;22.75;37.41;95682.81;4993947;28;20436;-59
2022/09/24 08:23:08;;;;;;;0.50;0.40;;;;;;;23.64;37.81;95810.84;4990596;28;20431;-58
2022/09/24 08:25:37;;;;;;;0.70;0.70;;;;;;;24.10;36.82;95809.53;4990398;28;20428;-58
2022/09/24 08:28:10;;;;;;;0.50;0.30;;;;;;;23.63;37.71;95820.88;4990075;28;20427;-57
2022/09/24 08:30:39;;;;;;;0.53;0.53;;;;;;;21.97;39.82;95808.94;4990165;28;20803;-58
2022/09/24 08:33:08;;;;;;;0.50;0.40;;;;;;;21.77;38.82;95791.59;4989986;28;20427;-57
2022/09/24 08:35:37;;;;;;;0.50;0.50;;;;;;;22.71;39.93;95804.31;4989950;28;20431;-56
2022/09/24 08:38:05;;;;;;;1.03;0.93;;;;;;;22.39;38.14;95726.75;4989168;28;20487;-59
2022/09/24 08:40:40;;;;;;;0.40;0.30;;;;;;;24.50;37.29;95796.75;4989691;28;20474;-59
2022/09/24 08:43:24;;;;;;;2.47;0.93;;;;;;;24.16;35.59;95784.56;4989853;28;20479;-59
2022/09/24 08:48:51;;;;;;;0.90;0.53;;;;;;;24.18;37.76;95793.16;4989814;28;20445;-60
2022/09/24 08:51:22;;;;;;;0.50;0.40;;;;;;;25.19;33.81;95788.91;4989521;28;20992;-60
2022/09/24 08:53:58;;;;;;;0.50;0.40;;;;;;;25.19;33.25;95783.50;4989763;28;20436;-60
2022/09/24 08:56:30;;;;;;;0.80;0.80;;;;;;;24.79;34.75;95769.31;4989801;28;20943;-60
2022/09/24 08:59:02;;;;;;;0.50;0.40;;;;;;;24.56;34.01;95776.41;4989647;28;20475;-60
2022/09/24 09:01:38;;;;;;;0.40;0.30;;;;;;;24.97;33.23;95775.94;4989404;28;20443;-60
2022/09/24 09:04:26;;;;;;;0.60;0.50;;;;;;;26.76;35.74;95774.84;4989715;28;20453;-61
2022/09/24 09:07:13;;;;;;;0.80;0.60;;;;;;;25.92;33.33;95777.44;4989594;28;20925;-59
2022/09/24 09:09:49;;;;;;;1.17;0.40;;;;;;;24.57;34.27;95692.03;4989624;28;20448;-59
2022/09/24 09:12:23;;;;;;;0.60;0.60;;;;;;;24.61;34.69;95762.59;4989808;28;20912;-60
2022/09/24 09:15:01;;;;;;;1.03;0.67;;;;;;;24.74;35.11;95755.19;4989376;28;20940;-60
2022/09/24 09:17:41;;;;;;;0.60;0.53;;;;;;;25.53;34.08;95756.75;4989605;28;20474;-60
2022/09/24 09:20:17;;;;;;;0.77;0.77;;;;;;;25.87;31.51;95758.69;4989224;28;20429;-60
2022/09/24 09:22:49;;;;;;;0.70;0.60;;;;;;;25.64;30.53;95681.78;4989227;28;20429;-60
2022/09/24 09:25:24;;;;;;;0.37;0.30;;;;;;;26.51;30.71;95733.63;4988834;28;20448;-60
2022/09/24 09:28:00;;;;;;;0.40;0.30;;;;;;;26.69;32.91;95721.09;4989609;28;20417;-59
2022/09/24 09:30:42;;;;;;;0.50;0.40;;;;;;;26.89;29.73;95686.50;4989608;28;20433;-60
2022/09/24 09:33:27;;;;;;;1.00;0.33;;;;;;;27.48;29.69;95732.16;4989506;28;20453;-60
2022/09/24 09:36:07;;;;;;;2.97;0.40;;;;;;;26.85;31.38;95743.56;4989634;28;20429;-59
2022/09/24 09:38:43;;;;;;;0.90;0.60;;;;;;;26.06;31.68;95733.47;4989385;28;20481;-60
2022/09/24 09:41:20;;;;;;;0.53;0.53;;;;;;;26.48;31.15;95723.44;4989003;28;20480;-60
2022/09/24 09:43:49;;;;;;;0.50;0.40;;;;;;;25.23;32.83;95726.59;4988862;28;20466;-59
2022/09/24 09:46:26;;;;;;;0.40;0.30;;;;;;;26.48;31.68;95732.41;4989369;28;20431;-59
2022/09/24 09:48:59;;;;;;;0.40;0.30;;;;;;;27.57;29.74;95679.00;4989967;28;20444;-61
2022/09/24 09:51:37;;;;;;;0.60;0.50;;;;;;;28.06;29.99;95719.75;4992638;28;20429;-60
2022/09/24 09:54:05;;;;;;;0.40;0.40;;;;;;;27.52;30.12;95722.91;4991690;28;20438;-60
2022/09/24 09:56:36;;;;;;;2.50;0.40;;;;;;;27.85;29.64;95707.78;4992287;28;20448;-60
2022/09/24 09:59:16;;;;;;;0.40;0.37;;;;;;;26.78;31.21;95726.34;4992115;28;20479;-59
2022/09/24 10:01:49;;;;;;;0.50;0.40;;;;;;;27.15;29.89;95716.47;4992174;28;20800;-60
2022/09/24 10:04:38;;;;;;;0.40;0.40;;;;;;;28.14;29.00;95715.16;4992101;28;20918;-64
2022/09/24 10:07:09;;;;;;;0.40;0.40;;;;;;;29.29;28.42;95716.72;4992083;28;20447;-63
2022/09/24 10:09:38;;;;;;;0.70;0.53;;;;;;;28.95;28.82;95705.91;4992171;28;20452;-63
2022/09/24 10:12:08;;;;;;;0.30;0.30;;;;;;;29.25;27.79;95699.50;4992290;28;20483;-63
2022/09/24 10:14:36;;;;;;;0.40;0.30;;;;;;;27.84;29.11;95706.19;4992139;28;20433;-64
2022/09/24 10:17:06;;;;;;;0.50;0.40;;;;;;;28.44;28.09;95696.78;4992085;28;20434;-63
2022/09/24 10:19:37;;;;;;;0.50;0.40;;;;;;;27.66;30.91;95692.34;4991992;28;20475;-63
2022/09/24 10:22:15;;;;;;;0.90;0.40;;;;;;;28.22;29.17;95674.00;4991921;28;20450;-63
2022/09/24 10:24:44;;;;;;;0.40;0.40;;;;;;;28.49;28.02;95682.81;4992250;28;20440;-63
2022/09/24 10:27:14;;;;;;;0.53;0.40;;;;;;;28.26;28.61;95684.91;4991734;28;20434;-63
2022/09/24 10:32:30;;;;;;;0.47;0.40;;;;;;;29.62;27.83;95683.78;4992176;28;20923;-62
2022/09/24 10:35:00;;;;;;;0.40;0.33;;;;;;;29.47;27.10;95633.72;4991635;28;20429;-62
2022/09/24 10:37:29;;;;;;;1.13;0.60;;;;;;;28.12;28.52;95685.56;4991853;28;20854;-63
2022/09/24 10:39:58;;;;;;;0.63;0.63;;;;;;;27.22;29.35;95610.44;4990731;28;20498;-63
2022/09/24 10:42:29;;;;;;;0.50;0.40;;;;;;;28.45;29.81;95676.56;4991526;28;20533;-60
2022/09/24 10:45:01;;;;;;;0.43;0.33;;;;;;;28.72;29.24;95664.38;4991540;28;20454;-60
2022/09/24 10:47:41;;;;;;;2.97;0.30;;;;;;;27.88;28.59;95663.44;4991529;28;21148;-60
2022/09/24 10:50:24;;;;;;;4.73;0.93;;;;;;;27.16;29.41;95662.81;4991471;28;20462;-60
2022/09/24 10:52:57;;;;;;;0.40;0.30;;;;;;;28.54;29.87;95654.44;4991314;28;20450;-59
2022/09/24 10:55:42;;;;;;;0.40;0.30;;;;;;;29.38;29.34;95644.22;4991707;28;20944;-61
2022/09/24 10:58:24;;;;;;;0.83;0.70;;;;;;;29.37;27.45;95641.88;4990991;28;20451;-60
2022/09/24 11:01:06;;;;;;;0.40;0.30;;;;;;;29.68;28.34;95632.28;4991198;28;20607;-60
2022/09/24 11:03:59;;;;;;;0.40;0.37;;;;;;;30.04;27.41;95634.00;4991289;28;20447;-60
2022/09/24 11:06:40;;;;;;;0.60;0.60;;;;;;;27.88;28.01;95623.34;4991152;28;20417;-60
2022/09/24 11:09:23;;;;;;;0.50;0.50;;;;;;;29.08;27.41;95634.63;4991655;28;20456;-60
2022/09/24 11:12:04;;;;;;;0.50;0.50;;;;;;;28.20;27.70;95631.91;4991495;28;20429;-60
2022/09/24 11:14:48;;;;;;;0.50;0.50;;;;;;;27.43;28.34;95629.81;4991336;28;20451;-60
2022/09/24 11:17:31;;;;;;;0.50;0.50;;;;;;;27.36;27.95;95629.69;4991174;28;20427;-61
2022/09/24 11:20:13;;;;;;;0.77;0.77;;;;;;;28.80;27.65;95619.63;4990925;28;20499;-61
2022/09/24 11:22:55;;;;;;;0.40;0.40;;;;;;;29.44;26.61;95617.34;4991060;28;20911;-60
2022/09/24 11:25:39;;;;;;;0.50;0.30;;;;;;;29.59;27.11;95613.50;4991023;28;20432;-60
2022/09/24 11:28:24;;;;;;;0.50;0.40;;;;;;;27.14;28.48;95629.75;4990914;28;20444;-60
2022/09/24 11:31:05;;;;;;;0.43;0.43;;;;;;;26.76;29.50;95619.81;4990953;28;20432;-61
2022/09/24 11:33:53;;;;;;;0.60;0.57;;;;;;;27.19;29.79;95605.72;4990668;28;20524;-61
2022/09/24 11:36:36;;;;;;;0.30;0.30;;;;;;;28.63;27.58;95614.81;4990627;28;20926;-60
2022/09/24 11:39:23;;;;;;;0.43;0.30;;;;;;;29.52;26.67;95616.22;4990492;28;20490;-60
2022/09/24 11:41:59;;;;;;;0.60;0.37;;;;;;;27.94;28.30;95612.91;4991041;28;20441;-60
2022/09/24 11:44:54;;;;;;;0.60;0.40;;;;;;;28.05;29.02;95611.91;4990685;28;20437;-60
2022/09/24 11:47:35;;;;;;;0.53;0.53;;;;;;;28.07;28.03;95606.84;4990966;28;20445;-60
2022/09/24 11:50:17;;;;;;;0.40;0.30;;;;;;;28.92;27.07;95602.94;4993704;28;20444;-60
2022/09/24 11:52:52;;;;;;;0.40;0.40;;;;;;;29.43;26.59;95605.63;4990768;28;20435;-60
2022/09/24 11:55:24;;;;;;;0.40;0.30;;;;;;;29.74;25.88;95598.72;4991025;28;20432;-60
2022/09/24 11:58:12;;;;;;;0.60;0.60;;;;;;;29.20;27.31;95585.19;4990517;28;20428;-60
2022/09/24 12:00:47;;;;;;;0.40;0.37;;;;;;;29.74;27.31;95604.19;4990711;28;20486;-60
2022/09/24 12:03:20;;;;;;;0.30;0.30;;;;;;;29.39;26.63;95596.63;4990540;28;20438;-61
2022/09/24 12:05:59;;;;;;;0.50;0.30;;;;;;;28.22;26.82;95558.72;4990505;28;20502;-61
2022/09/24 12:08:35;;;;;;;0.70;0.50;;;;;;;28.53;26.62;95601.06;4990493;28;20434;-60
2022/09/24 12:11:09;;;;;;;0.40;0.30;;;;;;;29.21;26.11;95594.97;4990092;28;20417;-60
2022/09/24 12:13:41;;;;;;;0.40;0.30;;;;;;;29.68;27.29;95599.50;4989996;28;20811;-60